sensor_id;sensor_type;location;lat;lon;timestamp;P1;durP1;ratioP1;P2;durP2;ratioP2
29280;SDS011;25048;49.590;11.026;2023-02-15T00:00:07;21.80;;;8.57;;
29280;SDS011;25048;49.590;11.026;2023-02-15T00:02:36;17.03;;;7.37;;
29280;SDS011;25048;49.590;11.026;2023-02-15T00:05:04;19.17;;;7.77;;
29280;SDS011;25048;49.590;11.026;2023-02-15T00:07:32;14.47;;;6.57;;
29280;SDS011;25048;49.590;11.026;2023-02-15T00:09:59;16.73;;;7.40;;
29280;SDS011;25048;49.590;11.026;2023-02-15T00:12:27;18.73;;;8.20;;
29280;SDS011;25048;49.590;11.026;2023-02-15T00:14:55;23.80;;;8.63;;
29280;SDS011;25048;49.590;11.026;2023-02-15T00:17:23;24.00;;;9.50;;
29280;SDS011;25048;49.590;11.026;2023-02-15T00:19:50;22.80;;;8.10;;
29280;SDS011;25048;49.590;11.026;2023-02-15T00:22:18;24.40;;;9.07;;
29280;SDS011;25048;49.590;11.026;2023-02-15T00:24:45;20.97;;;8.67;;
29280;SDS011;25048;49.590;11.026;2023-02-15T00:27:13;19.57;;;8.97;;
29280;SDS011;25048;49.590;11.026;2023-02-15T00:29:40;23.50;;;11.33;;
29280;SDS011;25048;49.590;11.026;2023-02-15T00:32:08;24.03;;;10.07;;
29280;SDS011;25048;49.590;11.026;2023-02-15T00:34:35;213.33;;;123.93;;
29280;SDS011;25048;49.590;11.026;2023-02-15T00:37:03;196.50;;;119.40;;
29280;SDS011;25048;49.590;11.026;2023-02-15T00:39:30;183.23;;;125.40;;
29280;SDS011;25048;49.590;11.026;2023-02-15T00:41:58;193.93;;;125.80;;
29280;SDS011;25048;49.590;11.026;2023-02-15T00:44:25;521.13;;;146.03;;
29280;SDS011;25048;49.590;11.026;2023-02-15T00:46:53;428.17;;;144.13;;
29280;SDS011;25048;49.590;11.026;2023-02-15T00:49:20;273.67;;;134.30;;
29280;SDS011;25048;49.590;11.026;2023-02-15T00:51:48;399.20;;;141.70;;
29280;SDS011;25048;49.590;11.026;2023-02-15T00:54:15;432.47;;;143.40;;
29280;SDS011;25048;49.590;11.026;2023-02-15T00:56:43;612.60;;;143.60;;
29280;SDS011;25048;49.590;11.026;2023-02-15T00:59:10;457.77;;;144.20;;
29280;SDS011;25048;49.590;11.026;2023-02-15T01:01:38;398.07;;;143.33;;
29280;SDS011;25048;49.590;11.026;2023-02-15T01:04:05;371.97;;;137.83;;
29280;SDS011;25048;49.590;11.026;2023-02-15T01:06:33;341.93;;;137.17;;
29280;SDS011;25048;49.590;11.026;2023-02-15T01:09:00;265.87;;;137.33;;
29280;SDS011;25048;49.590;11.026;2023-02-15T01:11:28;368.40;;;140.10;;
29280;SDS011;25048;49.590;11.026;2023-02-15T01:13:56;234.13;;;131.23;;
29280;SDS011;25048;49.590;11.026;2023-02-15T01:16:25;284.80;;;139.70;;
29280;SDS011;25048;49.590;11.026;2023-02-15T01:18:54;276.90;;;135.27;;
29280;SDS011;25048;49.590;11.026;2023-02-15T01:21:22;312.53;;;140.23;;
29280;SDS011;25048;49.590;11.026;2023-02-15T01:23:51;391.43;;;140.07;;
29280;SDS011;25048;49.590;11.026;2023-02-15T01:26:19;311.43;;;139.77;;
29280;SDS011;25048;49.590;11.026;2023-02-15T01:28:47;563.10;;;144.23;;
29280;SDS011;25048;49.590;11.026;2023-02-15T01:31:15;338.10;;;135.90;;
29280;SDS011;25048;49.590;11.026;2023-02-15T01:33:45;296.87;;;130.17;;
29280;SDS011;25048;49.590;11.026;2023-02-15T01:36:14;338.97;;;132.90;;
29280;SDS011;25048;49.590;11.026;2023-02-15T01:38:43;378.37;;;135.80;;
29280;SDS011;25048;49.590;11.026;2023-02-15T01:41:11;367.60;;;133.40;;
29280;SDS011;25048;49.590;11.026;2023-02-15T01:43:56;385.67;;;130.57;;
29280;SDS011;25048;49.590;11.026;2023-02-15T01:46:35;331.87;;;127.67;;
29280;SDS011;25048;49.590;11.026;2023-02-15T01:49:07;347.37;;;128.40;;
29280;SDS011;25048;49.590;11.026;2023-02-15T01:51:44;354.77;;;130.37;;
29280;SDS011;25048;49.590;11.026;2023-02-15T01:54:18;568.40;;;140.37;;
29280;SDS011;25048;49.590;11.026;2023-02-15T01:56:49;494.10;;;137.93;;
29280;SDS011;25048;49.590;11.026;2023-02-15T01:59:18;324.13;;;126.83;;
29280;SDS011;25048;49.590;11.026;2023-02-15T02:01:47;406.10;;;135.80;;
29280;SDS011;25048;49.590;11.026;2023-02-15T02:04:19;367.17;;;131.73;;
29280;SDS011;25048;49.590;11.026;2023-02-15T02:06:51;388.97;;;131.93;;
29280;SDS011;25048;49.590;11.026;2023-02-15T02:09:19;113.67;;;95.80;;
29280;SDS011;25048;49.590;11.026;2023-02-15T02:11:47;113.87;;;97.43;;
29280;SDS011;25048;49.590;11.026;2023-02-15T02:14:15;36.60;;;32.90;;
29280;SDS011;25048;49.590;11.026;2023-02-15T02:16:57;64.43;;;58.47;;
29280;SDS011;25048;49.590;11.026;2023-02-15T02:22:39;117.93;;;94.43;;
29280;SDS011;25048;49.590;11.026;2023-02-15T02:28:01;153.57;;;103.80;;
29280;SDS011;25048;49.590;11.026;2023-02-15T02:35:45;534.77;;;133.60;;
29280;SDS011;25048;49.590;11.026;2023-02-15T02:38:28;202.73;;;119.43;;
29280;SDS011;25048;49.590;11.026;2023-02-15T02:43:59;289.80;;;125.60;;
29280;SDS011;25048;49.590;11.026;2023-02-15T02:48:57;383.50;;;129.73;;
29280;SDS011;25048;49.590;11.026;2023-02-15T02:51:25;211.90;;;122.73;;
29280;SDS011;25048;49.590;11.026;2023-02-15T02:53:53;294.37;;;126.00;;
29280;SDS011;25048;49.590;11.026;2023-02-15T02:56:25;223.07;;;119.80;;
29280;SDS011;25048;49.590;11.026;2023-02-15T02:59:03;150.80;;;105.40;;
29280;SDS011;25048;49.590;11.026;2023-02-15T03:01:31;258.80;;;126.80;;
29280;SDS011;25048;49.590;11.026;2023-02-15T03:04:05;205.83;;;119.00;;
29280;SDS011;25048;49.590;11.026;2023-02-15T03:06:47;158.47;;;107.50;;
29280;SDS011;25048;49.590;11.026;2023-02-15T03:11:55;196.23;;;117.33;;
29280;SDS011;25048;49.590;11.026;2023-02-15T03:14:23;205.23;;;120.97;;
29280;SDS011;25048;49.590;11.026;2023-02-15T03:16:51;234.97;;;124.67;;
29280;SDS011;25048;49.590;11.026;2023-02-15T03:19:21;271.50;;;125.67;;
29280;SDS011;25048;49.590;11.026;2023-02-15T03:21:50;581.53;;;140.67;;
29280;SDS011;25048;49.590;11.026;2023-02-15T03:24:28;279.30;;;126.40;;
29280;SDS011;25048;49.590;11.026;2023-02-15T03:26:58;369.73;;;128.27;;
29280;SDS011;25048;49.590;11.026;2023-02-15T03:29:27;369.83;;;131.50;;
29280;SDS011;25048;49.590;11.026;2023-02-15T03:31:57;457.17;;;133.77;;
29280;SDS011;25048;49.590;11.026;2023-02-15T03:34:27;348.80;;;130.57;;
29280;SDS011;25048;49.590;11.026;2023-02-15T03:37:08;490.60;;;137.00;;
29280;SDS011;25048;49.590;11.026;2023-02-15T03:39:33;375.30;;;131.80;;
29280;SDS011;25048;49.590;11.026;2023-02-15T03:42:13;417.27;;;135.90;;
29280;SDS011;25048;49.590;11.026;2023-02-15T03:47:29;363.93;;;125.43;;
29280;SDS011;25048;49.590;11.026;2023-02-15T03:52:55;360.87;;;130.20;;
29280;SDS011;25048;49.590;11.026;2023-02-15T03:55:26;347.33;;;130.43;;
29280;SDS011;25048;49.590;11.026;2023-02-15T03:57:54;363.20;;;129.43;;
29280;SDS011;25048;49.590;11.026;2023-02-15T04:00:41;363.97;;;123.87;;
29280;SDS011;25048;49.590;11.026;2023-02-15T04:06:02;357.03;;;126.67;;
29280;SDS011;25048;49.590;11.026;2023-02-15T04:08:30;631.77;;;133.73;;
29280;SDS011;25048;49.590;11.026;2023-02-15T04:11:15;382.43;;;123.13;;
29280;SDS011;25048;49.590;11.026;2023-02-15T04:13:43;498.53;;;132.80;;
29280;SDS011;25048;49.590;11.026;2023-02-15T04:16:10;508.70;;;135.13;;
29280;SDS011;25048;49.590;11.026;2023-02-15T04:18:43;458.77;;;134.47;;
29280;SDS011;25048;49.590;11.026;2023-02-15T04:21:28;472.37;;;135.00;;
29280;SDS011;25048;49.590;11.026;2023-02-15T04:24:14;580.83;;;133.43;;
29280;SDS011;25048;49.590;11.026;2023-02-15T04:27:00;620.97;;;131.33;;
29280;SDS011;25048;49.590;11.026;2023-02-15T04:29:29;536.03;;;133.63;;
29280;SDS011;25048;49.590;11.026;2023-02-15T04:31:58;462.67;;;133.33;;
29280;SDS011;25048;49.590;11.026;2023-02-15T04:34:27;642.43;;;130.90;;
29280;SDS011;25048;49.590;11.026;2023-02-15T04:36:54;589.50;;;139.00;;
29280;SDS011;25048;49.590;11.026;2023-02-15T04:39:22;584.80;;;135.77;;
29280;SDS011;25048;49.590;11.026;2023-02-15T04:41:49;560.10;;;135.23;;
29280;SDS011;25048;49.590;11.026;2023-02-15T04:44:17;687.03;;;129.63;;
29280;SDS011;25048;49.590;11.026;2023-02-15T04:46:44;685.03;;;127.50;;
29280;SDS011;25048;49.590;11.026;2023-02-15T04:49:12;683.07;;;125.97;;
29280;SDS011;25048;49.590;11.026;2023-02-15T04:51:39;591.03;;;135.77;;
29280;SDS011;25048;49.590;11.026;2023-02-15T04:54:07;559.47;;;133.87;;
29280;SDS011;25048;49.590;11.026;2023-02-15T04:56:34;583.20;;;135.57;;
29280;SDS011;25048;49.590;11.026;2023-02-15T04:59:03;565.67;;;137.93;;
29280;SDS011;25048;49.590;11.026;2023-02-15T05:01:31;615.53;;;133.43;;
29280;SDS011;25048;49.590;11.026;2023-02-15T05:03:58;691.57;;;129.17;;
29280;SDS011;25048;49.590;11.026;2023-02-15T05:06:26;25.43;;;14.17;;
29280;SDS011;25048;49.590;11.026;2023-02-15T05:08:53;135.63;;;98.30;;
29280;SDS011;25048;49.590;11.026;2023-02-15T05:11:21;31.37;;;19.27;;
29280;SDS011;25048;49.590;11.026;2023-02-15T05:13:49;23.00;;;9.10;;
29280;SDS011;25048;49.590;11.026;2023-02-15T05:16:16;27.20;;;13.73;;
29280;SDS011;25048;49.590;11.026;2023-02-15T05:18:44;34.77;;;31.07;;
29280;SDS011;25048;49.590;11.026;2023-02-15T05:21:11;129.77;;;92.33;;
29280;SDS011;25048;49.590;11.026;2023-02-15T05:23:39;161.07;;;107.83;;
29280;SDS011;25048;49.590;11.026;2023-02-15T05:26:07;24.43;;;9.37;;
29280;SDS011;25048;49.590;11.026;2023-02-15T05:28:55;25.93;;;10.63;;
29280;SDS011;25048;49.590;11.026;2023-02-15T05:31:23;33.20;;;14.33;;
29280;SDS011;25048;49.590;11.026;2023-02-15T05:33:50;24.33;;;16.67;;
29280;SDS011;25048;49.590;11.026;2023-02-15T05:36:18;28.90;;;9.93;;
29280;SDS011;25048;49.590;11.026;2023-02-15T05:38:45;28.10;;;17.80;;
29280;SDS011;25048;49.590;11.026;2023-02-15T05:41:13;47.50;;;42.40;;
29280;SDS011;25048;49.590;11.026;2023-02-15T05:43:41;26.20;;;13.43;;
29280;SDS011;25048;49.590;11.026;2023-02-15T05:46:08;33.67;;;20.53;;
29280;SDS011;25048;49.590;11.026;2023-02-15T05:48:37;24.47;;;10.73;;
29280;SDS011;25048;49.590;11.026;2023-02-15T05:51:11;22.57;;;9.23;;
29280;SDS011;25048;49.590;11.026;2023-02-15T05:53:41;25.60;;;9.93;;
29280;SDS011;25048;49.590;11.026;2023-02-15T05:56:09;25.40;;;8.93;;
29280;SDS011;25048;49.590;11.026;2023-02-15T05:58:38;21.57;;;10.03;;
29280;SDS011;25048;49.590;11.026;2023-02-15T06:01:08;24.40;;;8.80;;
29280;SDS011;25048;49.590;11.026;2023-02-15T06:03:39;26.23;;;10.53;;
29280;SDS011;25048;49.590;11.026;2023-02-15T06:06:07;27.37;;;10.27;;
29280;SDS011;25048;49.590;11.026;2023-02-15T06:08:35;27.80;;;10.20;;
29280;SDS011;25048;49.590;11.026;2023-02-15T06:11:04;26.50;;;10.83;;
29280;SDS011;25048;49.590;11.026;2023-02-15T06:13:32;27.07;;;9.30;;
29280;SDS011;25048;49.590;11.026;2023-02-15T06:16:00;22.40;;;9.40;;
29280;SDS011;25048;49.590;11.026;2023-02-15T06:18:28;22.03;;;9.90;;
29280;SDS011;25048;49.590;11.026;2023-02-15T06:20:55;27.10;;;11.07;;
29280;SDS011;25048;49.590;11.026;2023-02-15T06:23:22;26.23;;;10.83;;
29280;SDS011;25048;49.590;11.026;2023-02-15T06:25:50;24.60;;;11.50;;
29280;SDS011;25048;49.590;11.026;2023-02-15T06:28:17;24.47;;;10.10;;
29280;SDS011;25048;49.590;11.026;2023-02-15T06:30:45;24.37;;;9.73;;
29280;SDS011;25048;49.590;11.026;2023-02-15T06:33:13;31.77;;;11.27;;
29280;SDS011;25048;49.590;11.026;2023-02-15T06:35:41;33.30;;;11.47;;
29280;SDS011;25048;49.590;11.026;2023-02-15T06:38:08;28.00;;;11.07;;
29280;SDS011;25048;49.590;11.026;2023-02-15T06:40:36;24.57;;;10.40;;
29280;SDS011;25048;49.590;11.026;2023-02-15T06:43:03;27.10;;;10.37;;
29280;SDS011;25048;49.590;11.026;2023-02-15T06:45:31;29.90;;;11.40;;
29280;SDS011;25048;49.590;11.026;2023-02-15T06:47:58;33.47;;;11.37;;
29280;SDS011;25048;49.590;11.026;2023-02-15T06:50:26;36.00;;;12.97;;
29280;SDS011;25048;49.590;11.026;2023-02-15T06:52:57;30.03;;;12.23;;
29280;SDS011;25048;49.590;11.026;2023-02-15T06:55:25;32.87;;;12.93;;
29280;SDS011;25048;49.590;11.026;2023-02-15T06:57:52;29.43;;;12.17;;
29280;SDS011;25048;49.590;11.026;2023-02-15T07:00:20;30.87;;;11.07;;
29280;SDS011;25048;49.590;11.026;2023-02-15T07:02:58;30.00;;;12.27;;
29280;SDS011;25048;49.590;11.026;2023-02-15T07:05:21;30.50;;;11.63;;
29280;SDS011;25048;49.590;11.026;2023-02-15T07:07:49;27.97;;;12.37;;
29280;SDS011;25048;49.590;11.026;2023-02-15T07:10:17;34.37;;;13.20;;
29280;SDS011;25048;49.590;11.026;2023-02-15T07:12:45;30.57;;;11.50;;
29280;SDS011;25048;49.590;11.026;2023-02-15T07:15:14;33.87;;;13.27;;
29280;SDS011;25048;49.590;11.026;2023-02-15T07:17:43;30.03;;;11.60;;
29280;SDS011;25048;49.590;11.026;2023-02-15T07:20:16;33.90;;;11.30;;
29280;SDS011;25048;49.590;11.026;2023-02-15T07:22:42;31.97;;;12.30;;
29280;SDS011;25048;49.590;11.026;2023-02-15T07:25:11;30.27;;;11.97;;
29280;SDS011;25048;49.590;11.026;2023-02-15T07:27:39;32.93;;;10.83;;
29280;SDS011;25048;49.590;11.026;2023-02-15T07:30:08;37.17;;;12.53;;
29280;SDS011;25048;49.590;11.026;2023-02-15T07:32:37;30.37;;;12.13;;
29280;SDS011;25048;49.590;11.026;2023-02-15T07:35:06;29.17;;;11.77;;
29280;SDS011;25048;49.590;11.026;2023-02-15T07:37:34;35.13;;;12.90;;
29280;SDS011;25048;49.590;11.026;2023-02-15T07:40:01;35.93;;;13.53;;
29280;SDS011;25048;49.590;11.026;2023-02-15T07:42:30;36.40;;;13.60;;
29280;SDS011;25048;49.590;11.026;2023-02-15T07:44:57;34.30;;;14.43;;
29280;SDS011;25048;49.590;11.026;2023-02-15T07:47:26;31.80;;;12.07;;
29280;SDS011;25048;49.590;11.026;2023-02-15T07:49:53;34.67;;;13.23;;
29280;SDS011;25048;49.590;11.026;2023-02-15T07:52:21;40.20;;;13.53;;
29280;SDS011;25048;49.590;11.026;2023-02-15T07:54:48;35.03;;;13.10;;
29280;SDS011;25048;49.590;11.026;2023-02-15T07:57:16;30.70;;;12.83;;
29280;SDS011;25048;49.590;11.026;2023-02-15T07:59:43;30.97;;;12.10;;
29280;SDS011;25048;49.590;11.026;2023-02-15T08:02:11;29.40;;;11.70;;
29280;SDS011;25048;49.590;11.026;2023-02-15T08:04:40;27.53;;;10.83;;
29280;SDS011;25048;49.590;11.026;2023-02-15T08:07:07;28.73;;;12.43;;
29280;SDS011;25048;49.590;11.026;2023-02-15T08:09:35;31.10;;;11.97;;
29280;SDS011;25048;49.590;11.026;2023-02-15T08:12:02;25.50;;;11.13;;
29280;SDS011;25048;49.590;11.026;2023-02-15T08:14:30;27.07;;;12.10;;
29280;SDS011;25048;49.590;11.026;2023-02-15T08:16:59;24.30;;;11.50;;
29280;SDS011;25048;49.590;11.026;2023-02-15T08:19:31;25.13;;;11.67;;
29280;SDS011;25048;49.590;11.026;2023-02-15T08:22:04;27.40;;;11.53;;
29280;SDS011;25048;49.590;11.026;2023-02-15T08:24:34;26.43;;;10.93;;
29280;SDS011;25048;49.590;11.026;2023-02-15T08:27:03;27.43;;;10.40;;
29280;SDS011;25048;49.590;11.026;2023-02-15T08:29:33;30.97;;;13.07;;
29280;SDS011;25048;49.590;11.026;2023-02-15T08:32:05;26.57;;;11.60;;
29280;SDS011;25048;49.590;11.026;2023-02-15T08:34:35;29.97;;;12.33;;
29280;SDS011;25048;49.590;11.026;2023-02-15T08:37:05;29.97;;;12.33;;
29280;SDS011;25048;49.590;11.026;2023-02-15T08:39:32;34.90;;;13.40;;
29280;SDS011;25048;49.590;11.026;2023-02-15T08:42:01;30.37;;;12.43;;
29280;SDS011;25048;49.590;11.026;2023-02-15T08:44:29;28.00;;;12.63;;
29280;SDS011;25048;49.590;11.026;2023-02-15T08:46:56;27.77;;;11.40;;
29280;SDS011;25048;49.590;11.026;2023-02-15T08:49:26;25.50;;;11.17;;
29280;SDS011;25048;49.590;11.026;2023-02-15T08:51:53;27.07;;;11.10;;
29280;SDS011;25048;49.590;11.026;2023-02-15T08:54:21;24.23;;;10.40;;
29280;SDS011;25048;49.590;11.026;2023-02-15T08:56:48;31.90;;;12.73;;
29280;SDS011;25048;49.590;11.026;2023-02-15T08:59:17;24.87;;;11.37;;
29280;SDS011;25048;49.590;11.026;2023-02-15T09:01:47;27.20;;;11.27;;
29280;SDS011;25048;49.590;11.026;2023-02-15T09:04:16;27.90;;;10.90;;
29280;SDS011;25048;49.590;11.026;2023-02-15T09:06:44;27.77;;;11.60;;
29280;SDS011;25048;49.590;11.026;2023-02-15T09:09:13;27.53;;;11.43;;
29280;SDS011;25048;49.590;11.026;2023-02-15T09:11:42;26.23;;;11.83;;
29280;SDS011;25048;49.590;11.026;2023-02-15T09:14:12;24.20;;;10.70;;
29280;SDS011;25048;49.590;11.026;2023-02-15T09:16:42;27.50;;;11.27;;
29280;SDS011;25048;49.590;11.026;2023-02-15T09:19:13;38.10;;;13.07;;
29280;SDS011;25048;49.590;11.026;2023-02-15T09:21:41;30.60;;;12.33;;
29280;SDS011;25048;49.590;11.026;2023-02-15T09:24:09;29.60;;;12.40;;
29280;SDS011;25048;49.590;11.026;2023-02-15T09:26:40;26.90;;;12.13;;
29280;SDS011;25048;49.590;11.026;2023-02-15T09:29:09;25.93;;;10.57;;
29280;SDS011;25048;49.590;11.026;2023-02-15T09:31:39;25.67;;;10.63;;
29280;SDS011;25048;49.590;11.026;2023-02-15T09:34:10;24.70;;;10.80;;
29280;SDS011;25048;49.590;11.026;2023-02-15T09:36:43;25.60;;;11.10;;
29280;SDS011;25048;49.590;11.026;2023-02-15T09:39:13;29.07;;;12.80;;
29280;SDS011;25048;49.590;11.026;2023-02-15T09:58:30;22.73;;;9.37;;
29280;SDS011;25048;49.590;11.026;2023-02-15T10:01:05;22.37;;;10.47;;
29280;SDS011;25048;49.590;11.026;2023-02-15T10:20:49;21.47;;;8.77;;
29280;SDS011;25048;49.590;11.026;2023-02-15T10:23:29;20.20;;;9.03;;
29280;SDS011;25048;49.590;11.026;2023-02-15T10:26:19;23.47;;;9.20;;
29280;SDS011;25048;49.590;11.026;2023-02-15T10:31:48;18.07;;;8.03;;
29280;SDS011;25048;49.590;11.026;2023-02-15T10:34:25;21.93;;;9.20;;
29280;SDS011;25048;49.590;11.026;2023-02-15T10:39:46;16.80;;;7.47;;
29280;SDS011;25048;49.590;11.026;2023-02-15T10:42:30;20.43;;;7.90;;
29280;SDS011;25048;49.590;11.026;2023-02-15T10:45:27;17.10;;;7.97;;
29280;SDS011;25048;49.590;11.026;2023-02-15T10:48:01;18.03;;;7.67;;
29280;SDS011;25048;49.590;11.026;2023-02-15T10:50:49;20.97;;;8.90;;
29280;SDS011;25048;49.590;11.026;2023-02-15T10:56:30;17.93;;;7.53;;
29280;SDS011;25048;49.590;11.026;2023-02-15T10:59:26;14.17;;;6.70;;
29280;SDS011;25048;49.590;11.026;2023-02-15T11:06:59;15.13;;;7.03;;
29280;SDS011;25048;49.590;11.026;2023-02-15T11:09:31;16.53;;;7.10;;
29280;SDS011;25048;49.590;11.026;2023-02-15T11:12:07;16.33;;;7.20;;
29280;SDS011;25048;49.590;11.026;2023-02-15T11:14:52;16.40;;;7.37;;
29280;SDS011;25048;49.590;11.026;2023-02-15T11:17:22;18.10;;;7.87;;
29280;SDS011;25048;49.590;11.026;2023-02-15T11:22:31;15.43;;;7.33;;
29280;SDS011;25048;49.590;11.026;2023-02-15T11:25:00;18.63;;;8.03;;
29280;SDS011;25048;49.590;11.026;2023-02-15T11:27:31;12.93;;;7.00;;
29280;SDS011;25048;49.590;11.026;2023-02-15T11:32:47;20.73;;;8.30;;
29280;SDS011;25048;49.590;11.026;2023-02-15T11:38:04;18.43;;;8.23;;
29280;SDS011;25048;49.590;11.026;2023-02-15T11:40:47;15.40;;;7.23;;
29280;SDS011;25048;49.590;11.026;2023-02-15T11:43:23;12.47;;;6.90;;
29280;SDS011;25048;49.590;11.026;2023-02-15T11:46:03;16.23;;;7.83;;
29280;SDS011;25048;49.590;11.026;2023-02-15T11:48:31;14.07;;;7.27;;
29280;SDS011;25048;49.590;11.026;2023-02-15T11:51:00;15.40;;;7.60;;
29280;SDS011;25048;49.590;11.026;2023-02-15T11:53:32;15.97;;;7.53;;
29280;SDS011;25048;49.590;11.026;2023-02-15T11:56:03;16.00;;;7.37;;
29280;SDS011;25048;49.590;11.026;2023-02-15T12:01:27;16.43;;;7.10;;
29280;SDS011;25048;49.590;11.026;2023-02-15T12:04:40;12.87;;;7.07;;
29280;SDS011;25048;49.590;11.026;2023-02-15T12:06:34;14.83;;;7.47;;
29280;SDS011;25048;49.590;11.026;2023-02-15T12:11:41;15.47;;;8.33;;
29280;SDS011;25048;49.590;11.026;2023-02-15T12:14:09;14.77;;;7.17;;
29280;SDS011;25048;49.590;11.026;2023-02-15T12:16:48;15.80;;;7.70;;
29280;SDS011;25048;49.590;11.026;2023-02-15T12:21:54;16.43;;;7.87;;
29280;SDS011;25048;49.590;11.026;2023-02-15T12:24:26;17.87;;;8.60;;
29280;SDS011;25048;49.590;11.026;2023-02-15T12:27:04;16.00;;;8.17;;
29280;SDS011;25048;49.590;11.026;2023-02-15T12:29:44;17.53;;;8.73;;
29280;SDS011;25048;49.590;11.026;2023-02-15T12:32:22;15.23;;;8.00;;
29280;SDS011;25048;49.590;11.026;2023-02-15T12:34:54;17.03;;;8.17;;
29280;SDS011;25048;49.590;11.026;2023-02-15T12:37:23;13.63;;;7.20;;
29280;SDS011;25048;49.590;11.026;2023-02-15T12:39:54;17.97;;;8.27;;
29280;SDS011;25048;49.590;11.026;2023-02-15T12:42:42;17.57;;;7.67;;
29280;SDS011;25048;49.590;11.026;2023-02-15T12:45:30;18.50;;;7.23;;
29280;SDS011;25048;49.590;11.026;2023-02-15T12:48:09;18.33;;;8.30;;
29280;SDS011;25048;49.590;11.026;2023-02-15T12:50:45;17.20;;;8.13;;
29280;SDS011;25048;49.590;11.026;2023-02-15T12:53:20;17.53;;;7.57;;
29280;SDS011;25048;49.590;11.026;2023-02-15T12:58:21;17.93;;;8.93;;
29280;SDS011;25048;49.590;11.026;2023-02-15T13:01:03;16.13;;;8.10;;
29280;SDS011;25048;49.590;11.026;2023-02-15T13:03:49;20.23;;;9.50;;
29280;SDS011;25048;49.590;11.026;2023-02-15T13:06:15;22.33;;;9.97;;
29280;SDS011;25048;49.590;11.026;2023-02-15T13:08:46;16.57;;;8.73;;
29280;SDS011;25048;49.590;11.026;2023-02-15T13:11:19;19.30;;;8.87;;
29280;SDS011;25048;49.590;11.026;2023-02-15T13:13:56;17.47;;;8.70;;
29280;SDS011;25048;49.590;11.026;2023-02-15T13:16:36;15.93;;;9.23;;
29280;SDS011;25048;49.590;11.026;2023-02-15T13:19:15;22.03;;;9.43;;
29280;SDS011;25048;49.590;11.026;2023-02-15T13:21:49;24.87;;;10.47;;
29280;SDS011;25048;49.590;11.026;2023-02-15T13:24:20;17.40;;;8.77;;
29280;SDS011;25048;49.590;11.026;2023-02-15T13:26:49;18.77;;;9.57;;
29280;SDS011;25048;49.590;11.026;2023-02-15T13:29:27;21.50;;;11.10;;
29280;SDS011;25048;49.590;11.026;2023-02-15T13:31:53;22.60;;;9.73;;
29280;SDS011;25048;49.590;11.026;2023-02-15T13:34:28;19.93;;;10.33;;
29280;SDS011;25048;49.590;11.026;2023-02-15T13:39:38;22.67;;;10.27;;
29280;SDS011;25048;49.590;11.026;2023-02-15T13:45:04;26.13;;;10.77;;
29280;SDS011;25048;49.590;11.026;2023-02-15T13:55:57;26.20;;;10.43;;
29280;SDS011;25048;49.590;11.026;2023-02-15T14:01:27;22.50;;;10.77;;
29280;SDS011;25048;49.590;11.026;2023-02-15T14:04:12;17.80;;;10.23;;
29280;SDS011;25048;49.590;11.026;2023-02-15T14:06:43;23.70;;;11.47;;
29280;SDS011;25048;49.590;11.026;2023-02-15T14:20:29;27.97;;;11.63;;
29280;SDS011;25048;49.590;11.026;2023-02-15T14:23:17;23.27;;;11.60;;
29280;SDS011;25048;49.590;11.026;2023-02-15T14:25:48;25.43;;;11.07;;
29280;SDS011;25048;49.590;11.026;2023-02-15T14:28:20;24.77;;;11.70;;
29280;SDS011;25048;49.590;11.026;2023-02-15T14:31:00;30.33;;;12.90;;
29280;SDS011;25048;49.590;11.026;2023-02-15T14:33:37;26.10;;;12.27;;
29280;SDS011;25048;49.590;11.026;2023-02-15T14:36:07;27.47;;;10.87;;
29280;SDS011;25048;49.590;11.026;2023-02-15T14:41:29;28.77;;;12.50;;
29280;SDS011;25048;49.590;11.026;2023-02-15T14:49:44;29.80;;;12.97;;
29280;SDS011;25048;49.590;11.026;2023-02-15T14:52:11;29.83;;;13.03;;
29280;SDS011;25048;49.590;11.026;2023-02-15T14:59:53;29.83;;;13.53;;
29280;SDS011;25048;49.590;11.026;2023-02-15T15:03:25;26.43;;;13.00;;
29280;SDS011;25048;49.590;11.026;2023-02-15T15:08:00;33.33;;;13.30;;
29280;SDS011;25048;49.590;11.026;2023-02-15T15:10:35;30.30;;;14.10;;
29280;SDS011;25048;49.590;11.026;2023-02-15T15:13:52;29.77;;;12.97;;
29280;SDS011;25048;49.590;11.026;2023-02-15T15:15:54;34.93;;;14.37;;
29280;SDS011;25048;49.590;11.026;2023-02-15T15:21:51;28.93;;;13.03;;
29280;SDS011;25048;49.590;11.026;2023-02-15T15:23:59;27.47;;;12.30;;
29280;SDS011;25048;49.590;11.026;2023-02-15T15:26:32;35.83;;;14.53;;
29280;SDS011;25048;49.590;11.026;2023-02-15T15:28:59;36.17;;;14.63;;
29280;SDS011;25048;49.590;11.026;2023-02-15T15:42:50;31.93;;;14.57;;
29280;SDS011;25048;49.590;11.026;2023-02-15T15:45:30;30.27;;;14.00;;
29280;SDS011;25048;49.590;11.026;2023-02-15T15:50:48;33.63;;;14.97;;
29280;SDS011;25048;49.590;11.026;2023-02-15T15:53:20;32.07;;;13.70;;
29280;SDS011;25048;49.590;11.026;2023-02-15T15:55:52;32.03;;;12.93;;
29280;SDS011;25048;49.590;11.026;2023-02-15T15:58:21;46.53;;;16.00;;
29280;SDS011;25048;49.590;11.026;2023-02-15T16:00:51;33.33;;;13.90;;
29280;SDS011;25048;49.590;11.026;2023-02-15T16:03:25;33.13;;;19.73;;
29280;SDS011;25048;49.590;11.026;2023-02-15T16:05:55;33.17;;;14.63;;
29280;SDS011;25048;49.590;11.026;2023-02-15T16:08:35;39.50;;;15.37;;
29280;SDS011;25048;49.590;11.026;2023-02-15T16:11:10;45.73;;;35.80;;
29280;SDS011;25048;49.590;11.026;2023-02-15T16:13:43;31.67;;;14.73;;
29280;SDS011;25048;49.590;11.026;2023-02-15T16:16:12;36.00;;;14.63;;
29280;SDS011;25048;49.590;11.026;2023-02-15T16:18:41;31.90;;;14.30;;
29280;SDS011;25048;49.590;11.026;2023-02-15T16:21:14;37.87;;;15.50;;
29280;SDS011;25048;49.590;11.026;2023-02-15T16:24:02;33.27;;;14.13;;
29280;SDS011;25048;49.590;11.026;2023-02-15T16:26:43;36.13;;;14.90;;
29280;SDS011;25048;49.590;11.026;2023-02-15T16:29:16;34.20;;;13.87;;
29280;SDS011;25048;49.590;11.026;2023-02-15T16:31:59;34.53;;;14.47;;
29280;SDS011;25048;49.590;11.026;2023-02-15T16:34:27;34.73;;;14.90;;
29280;SDS011;25048;49.590;11.026;2023-02-15T16:37:15;36.57;;;15.03;;
29280;SDS011;25048;49.590;11.026;2023-02-15T16:39:45;31.60;;;14.67;;
29280;SDS011;25048;49.590;11.026;2023-02-15T16:42:14;33.60;;;14.23;;
29280;SDS011;25048;49.590;11.026;2023-02-15T16:44:43;35.23;;;14.97;;
29280;SDS011;25048;49.590;11.026;2023-02-15T16:47:21;39.93;;;16.37;;
29280;SDS011;25048;49.590;11.026;2023-02-15T16:49:49;36.53;;;15.17;;
29280;SDS011;25048;49.590;11.026;2023-02-15T16:52:20;36.63;;;15.23;;
29280;SDS011;25048;49.590;11.026;2023-02-15T16:54:51;46.27;;;16.40;;
29280;SDS011;25048;49.590;11.026;2023-02-15T16:57:24;33.60;;;13.87;;
29280;SDS011;25048;49.590;11.026;2023-02-15T16:59:55;36.90;;;13.97;;
29280;SDS011;25048;49.590;11.026;2023-02-15T17:02:26;33.70;;;14.23;;
29280;SDS011;25048;49.590;11.026;2023-02-15T17:07:38;35.73;;;14.67;;